Time;durP1;ratioP1;P1;durP2;ratioP2;P2;SDS_P1;SDS_P2;PMS_P1;PMS_P2;Temp;Humidity;BMP_temperature;BMP_pressure;BME280_temperature;BME280_humidity;BME280_pressure;Samples;Min_cycle;Max_cycle;Signal;HPM_P1;HPM_P2
2023/10/20 00:01:15;;;;;;;24.25;14.77;;;15.10;99.90;;;;;;5062212;28;20021;-63
2023/10/20 00:03:41;;;;;;;22.63;13.60;;;15.20;99.90;;;;;;5059817;28;20033;-62
2023/10/20 00:06:07;;;;;;;21.42;14.02;;;15.10;99.90;;;;;;5065730;28;20059;-63
2023/10/20 00:08:32;;;;;;;22.38;14.90;;;15.10;99.90;;;;;;5058411;28;20021;-63
2023/10/20 00:11:04;;;;;;;20.75;13.95;;;15.10;99.90;;;;;;5065388;28;20017;-63
2023/10/20 00:13:30;;;;;;;24.17;13.75;;;15.10;99.90;;;;;;5060030;28;20043;-62
2023/10/20 00:15:56;;;;;;;23.63;15.38;;;15.20;99.90;;;;;;5059795;28;20487;-62
2023/10/20 00:18:22;;;;;;;29.92;16.45;;;15.20;99.90;;;;;;5054478;28;20028;-63
2023/10/20 00:20:48;;;;;;;31.83;16.42;;;15.20;99.90;;;;;;5062299;28;20040;-62
2023/10/20 00:23:14;;;;;;;23.70;14.82;;;15.20;99.90;;;;;;5066637;28;20028;-61
2023/10/20 00:25:41;;;;;;;31.60;16.60;;;15.20;99.90;;;;;;5060618;28;20479;-61
2023/10/20 00:28:08;;;;;;;27.67;17.02;;;15.20;99.90;;;;;;5062189;28;20410;-62
2023/10/20 00:30:35;;;;;;;32.75;18.75;;;15.20;99.90;;;;;;5060909;28;20017;-60
2023/10/20 00:33:01;;;;;;;25.92;15.57;;;15.20;99.90;;;;;;5059653;28;20095;-59
2023/10/20 00:35:27;;;;;;;30.38;16.60;;;15.20;99.90;;;;;;5058383;28;20399;-63
2023/10/20 00:37:53;;;;;;;28.42;17.73;;;15.20;99.90;;;;;;5064624;28;20032;-62
2023/10/20 00:40:20;;;;;;;29.88;18.02;;;15.20;99.90;;;;;;5063394;28;20408;-62
2023/10/20 00:42:45;;;;;;;34.10;17.92;;;15.20;99.90;;;;;;5057977;28;20074;-62
2023/10/20 00:45:11;;;;;;;29.65;17.30;;;15.20;99.90;;;;;;5063152;28;20032;-59
2023/10/20 00:47:38;;;;;;;32.28;19.35;;;15.30;99.90;;;;;;5064329;28;20459;-62
2023/10/20 00:50:06;;;;;;;27.88;17.13;;;15.20;99.90;;;;;;5057837;28;20021;-62
2023/10/20 00:52:35;;;;;;;31.27;18.17;;;15.30;99.90;;;;;;5066439;28;20039;-62
2023/10/20 00:55:02;;;;;;;32.50;18.65;;;15.30;99.90;;;;;;5054879;28;20032;-60
2023/10/20 00:57:28;;;;;;;32.35;18.95;;;15.30;99.90;;;;;;5063628;28;20026;-63
2023/10/20 00:59:53;;;;;;;28.15;17.35;;;15.30;99.90;;;;;;5056708;28;20029;-62
2023/10/20 01:02:20;;;;;;;28.30;18.05;;;15.30;99.90;;;;;;5066651;28;20032;-63
2023/10/20 01:04:45;;;;;;;31.50;17.85;;;15.30;99.90;;;;;;5052438;28;20487;-62
2023/10/20 01:07:11;;;;;;;28.05;17.25;;;15.30;99.90;;;;;;5062481;28;20154;-62
2023/10/20 01:09:36;;;;;;;29.35;17.17;;;15.30;99.90;;;;;;5054433;28;20086;-62
2023/10/20 01:12:03;;;;;;;34.90;17.15;;;15.30;99.90;;;;;;5057304;28;20032;-59
2023/10/20 01:14:29;;;;;;;25.38;16.63;;;15.30;99.90;;;;;;5059626;28;20024;-61
2023/10/20 01:16:54;;;;;;;32.00;17.90;;;15.30;99.90;;;;;;5060617;28;20025;-62
2023/10/20 01:19:20;;;;;;;28.38;17.23;;;15.40;99.90;;;;;;5056811;28;20032;-62
2023/10/20 01:21:45;;;;;;;25.63;15.88;;;15.40;99.90;;;;;;5058988;28;20161;-63
2023/10/20 01:24:11;;;;;;;30.23;18.50;;;15.40;99.90;;;;;;5059049;28;20073;-62
2023/10/20 01:26:36;;;;;;;29.77;16.60;;;15.40;99.90;;;;;;5056149;28;20529;-63
2023/10/20 01:29:05;;;;;;;27.13;15.35;;;15.40;99.90;;;;;;5057630;28;20087;-63
2023/10/20 01:31:31;;;;;;;28.65;17.20;;;15.40;99.90;;;;;;5062499;28;20028;-63
2023/10/20 01:33:56;;;;;;;26.15;16.17;;;15.40;99.90;;;;;;5056810;28;20031;-61
2023/10/20 01:36:22;;;;;;;24.80;15.50;;;15.50;99.90;;;;;;5058847;28;20027;-62
2023/10/20 01:38:47;;;;;;;25.65;16.35;;;15.50;99.90;;;;;;5058769;28;20033;-60
2023/10/20 01:41:13;;;;;;;27.23;15.73;;;15.50;99.90;;;;;;5059419;28;20036;-62
2023/10/20 01:43:38;;;;;;;28.40;15.25;;;15.50;99.90;;;;;;5056545;28;20396;-62
2023/10/20 01:46:04;;;;;;;25.85;15.48;;;15.50;99.90;;;;;;5061108;28;20056;-62
2023/10/20 01:48:33;;;;;;;21.65;15.00;;;15.50;99.90;;;;;;5064030;28;20031;-62
2023/10/20 01:51:00;;;;;;;30.10;15.48;;;15.50;99.90;;;;;;5059349;28;20086;-63
2023/10/20 01:53:26;;;;;;;23.23;13.63;;;15.50;99.90;;;;;;5062699;28;20021;-60
2023/10/20 01:55:51;;;;;;;22.40;15.90;;;15.50;99.90;;;;;;5061855;28;20040;-62
2023/10/20 01:58:20;;;;;;;23.40;15.57;;;15.50;99.90;;;;;;5057807;28;20564;-62
2023/10/20 02:00:50;;;;;;;22.77;14.80;;;15.50;99.90;;;;;;5056638;28;20507;-63
2023/10/20 02:03:16;;;;;;;21.95;13.63;;;15.50;99.90;;;;;;5058897;28;20037;-61
2023/10/20 02:05:41;;;;;;;25.85;14.18;;;15.60;99.90;;;;;;5058499;28;20039;-61
2023/10/20 02:08:10;;;;;;;24.92;14.23;;;15.60;99.90;;;;;;5062054;28;20028;-61
2023/10/20 02:10:36;;;;;;;20.40;13.75;;;15.60;99.90;;;;;;5055507;28;20032;-61
2023/10/20 02:13:03;;;;;;;31.75;13.98;;;15.60;99.90;;;;;;5064664;28;20036;-61
2023/10/20 02:15:29;;;;;;;23.50;13.05;;;15.60;99.90;;;;;;5059215;28;20106;-61
2023/10/20 02:17:56;;;;;;;19.80;13.02;;;15.60;99.90;;;;;;5058046;28;20036;-58
2023/10/20 02:20:23;;;;;;;21.95;13.23;;;15.60;99.90;;;;;;5055650;28;20513;-62
2023/10/20 02:22:50;;;;;;;30.73;12.85;;;15.60;99.90;;;;;;5060829;28;20059;-62
2023/10/20 02:25:16;;;;;;;22.67;12.48;;;15.60;99.90;;;;;;5056779;28;20499;-63
2023/10/20 02:27:42;;;;;;;24.55;13.27;;;15.60;99.90;;;;;;5062195;28;20395;-62
2023/10/20 02:30:15;;;;;;;21.77;12.05;;;15.60;99.90;;;;;;5058284;28;20414;-62
2023/10/20 02:32:41;;;;;;;18.13;12.05;;;15.60;99.90;;;;;;5059608;28;20060;-62
2023/10/20 02:35:08;;;;;;;20.00;11.05;;;15.60;99.90;;;;;;5055337;28;20410;-62
2023/10/20 02:37:33;;;;;;;17.20;10.57;;;15.60;99.90;;;;;;5062120;28;20037;-62
2023/10/20 02:39:59;;;;;;;15.82;10.25;;;15.60;99.90;;;;;;5060108;28;20082;-62
2023/10/20 02:42:24;;;;;;;16.75;10.55;;;15.60;99.90;;;;;;5060061;28;20039;-64
2023/10/20 02:44:50;;;;;;;17.33;9.88;;;15.60;99.90;;;;;;5055985;28;20029;-61
2023/10/20 02:47:16;;;;;;;16.13;9.35;;;15.60;99.90;;;;;;5056832;28;20021;-63
2023/10/20 02:49:41;;;;;;;12.15;8.88;;;15.60;99.90;;;;;;5055737;28;20025;-63
2023/10/20 02:52:07;;;;;;;13.30;9.13;;;15.60;99.90;;;;;;5058710;28;20028;-62
2023/10/20 02:54:34;;;;;;;14.10;8.75;;;15.60;99.90;;;;;;5066527;28;20028;-63
2023/10/20 02:57:05;;;;;;;13.18;8.88;;;15.60;99.90;;;;;;5058489;28;20108;-63
2023/10/20 02:59:30;;;;;;;15.40;8.60;;;15.60;99.90;;;;;;5063926;28;20028;-61
2023/10/20 03:01:56;;;;;;;14.77;8.48;;;15.70;99.90;;;;;;5065594;28;20032;-60
2023/10/20 03:04:21;;;;;;;12.38;8.57;;;15.60;99.90;;;;;;5061983;28;20490;-62
2023/10/20 03:06:47;;;;;;;15.13;8.18;;;15.60;99.90;;;;;;5060608;28;20025;-63
2023/10/20 03:09:13;;;;;;;15.20;8.73;;;15.70;99.90;;;;;;5065632;28;20434;-63
2023/10/20 03:11:39;;;;;;;14.30;8.40;;;15.60;99.90;;;;;;5063268;28;20099;-63
2023/10/20 03:14:05;;;;;;;8.77;7.15;;;15.60;99.90;;;;;;5063901;28;20102;-63
2023/10/20 03:16:31;;;;;;;14.27;7.90;;;15.60;99.90;;;;;;5059254;28;20154;-63
2023/10/20 03:18:56;;;;;;;16.35;7.53;;;15.60;99.90;;;;;;5068057;28;20111;-63
2023/10/20 03:21:23;;;;;;;11.60;7.38;;;15.60;99.90;;;;;;5064302;28;20036;-61
2023/10/20 03:23:48;;;;;;;10.15;7.75;;;15.60;99.90;;;;;;5063292;28;20893;-63
2023/10/20 03:26:14;;;;;;;12.38;7.18;;;15.60;99.90;;;;;;5063236;28;20033;-63
2023/10/20 03:28:40;;;;;;;13.32;7.85;;;15.60;99.90;;;;;;5067598;28;20482;-63
2023/10/20 03:31:07;;;;;;;13.25;6.90;;;15.60;99.90;;;;;;5062938;28;20061;-63
2023/10/20 03:33:32;;;;;;;12.23;6.68;;;15.60;99.90;;;;;;5067443;28;20028;-63
2023/10/20 03:36:03;;;;;;;14.32;8.48;;;15.60;99.90;;;;;;5059203;28;20029;-63
2023/10/20 03:38:29;;;;;;;12.10;7.15;;;15.60;99.90;;;;;;5074184;28;20123;-63
2023/10/20 03:41:06;;;;;;;15.35;7.20;;;15.50;99.90;;;;;;5062618;28;20495;-62
2023/10/20 03:43:32;;;;;;;16.52;7.82;;;15.50;99.90;;;;;;5066754;28;20422;-64
2023/10/20 03:45:59;;;;;;;13.75;8.02;;;15.50;99.90;;;;;;5058400;28;20039;-61
2023/10/20 03:48:27;;;;;;;13.60;7.78;;;15.60;99.90;;;;;;5066228;28;20035;-61
2023/10/20 03:50:53;;;;;;;10.55;6.93;;;15.60;99.90;;;;;;5056271;28;20021;-64
2023/10/20 03:53:22;;;;;;;14.07;8.43;;;15.50;99.90;;;;;;5064041;28;20052;-61
2023/10/20 03:56:01;;;;;;;13.68;8.73;;;15.50;99.90;;;;;;5060882;28;20024;-61
2023/10/20 03:58:30;;;;;;;15.18;9.77;;;15.60;99.90;;;;;;5063797;28;20387;-62
2023/10/20 04:01:03;;;;;;;17.40;10.13;;;15.60;99.90;;;;;;5064983;28;20104;-62
2023/10/20 04:03:32;;;;;;;15.93;9.43;;;15.60;99.90;;;;;;5064728;28;20056;-62
2023/10/20 04:05:57;;;;;;;20.90;9.77;;;15.60;99.90;;;;;;5059943;28;20116;-61
2023/10/20 04:08:24;;;;;;;13.65;10.35;;;15.50;99.90;;;;;;5060750;28;20116;-62
2023/10/20 04:10:57;;;;;;;16.45;9.38;;;15.50;99.90;;;;;;5061757;28;20037;-62
2023/10/20 04:13:23;;;;;;;15.93;10.25;;;15.50;99.90;;;;;;5060264;28;20036;-56
2023/10/20 04:15:49;;;;;;;18.33;10.35;;;15.60;99.90;;;;;;5059693;28;20055;-60
2023/10/20 04:18:15;;;;;;;16.73;10.40;;;15.50;99.90;;;;;;5053592;28;20028;-62
2023/10/20 04:20:42;;;;;;;15.68;10.30;;;15.50;99.90;;;;;;5061390;28;20055;-62
2023/10/20 04:23:08;;;;;;;21.45;11.05;;;15.50;99.90;;;;;;5060925;28;20032;-63
2023/10/20 04:25:39;;;;;;;15.82;10.73;;;15.50;99.90;;;;;;5061013;28;20028;-63
2023/10/20 04:54:44;;;;;;;12.75;9.02;;;15.50;99.90;;;;;;5060961;28;20078;-62
2023/10/20 04:59:54;;;;;;;14.60;10.13;;;15.40;99.90;;;;;;5063130;28;20083;-62
2023/10/20 05:05:11;;;;;;;13.77;9.10;;;15.40;99.90;;;;;;5055673;28;20035;-63
2023/10/20 05:07:36;;;;;;;13.93;9.48;;;15.40;99.90;;;;;;5058184;28;20037;-59
2023/10/20 05:10:04;;;;;;;15.80;10.45;;;15.40;99.90;;;;;;5059840;28;20375;-63
2023/10/20 05:12:33;;;;;;;16.05;10.32;;;15.40;99.90;;;;;;5058690;28;20033;-63
2023/10/20 05:14:58;;;;;;;14.50;9.95;;;15.40;99.90;;;;;;5057141;28;20044;-63
2023/10/20 05:17:25;;;;;;;13.48;8.93;;;15.40;99.90;;;;;;5058330;28;20028;-63
2023/10/20 05:19:53;;;;;;;12.35;9.18;;;15.40;99.90;;;;;;5065599;28;20025;-63
2023/10/20 05:22:19;;;;;;;18.65;9.80;;;15.40;99.90;;;;;;5055303;28;20494;-62
2023/10/20 05:24:44;;;;;;;20.05;8.68;;;15.40;99.90;;;;;;5059740;28;20060;-63
2023/10/20 05:27:10;;;;;;;15.30;8.80;;;15.40;99.90;;;;;;5056791;28;21227;-59
2023/10/20 05:29:38;;;;;;;15.13;9.15;;;15.40;99.90;;;;;;5057891;28;20068;-63
2023/10/20 05:32:06;;;;;;;13.60;8.80;;;15.40;99.90;;;;;;5058412;28;20024;-62
2023/10/20 05:34:31;;;;;;;11.65;7.85;;;15.40;99.90;;;;;;5059154;28;20513;-62
2023/10/20 05:36:57;;;;;;;14.88;8.95;;;15.40;99.90;;;;;;5056769;28;20029;-62
2023/10/20 05:39:22;;;;;;;15.32;9.15;;;15.40;99.90;;;;;;5059900;28;20112;-63
2023/10/20 05:41:48;;;;;;;12.30;7.78;;;15.40;99.90;;;;;;5061258;28;20021;-64
2023/10/20 05:44:14;;;;;;;11.98;8.00;;;15.40;99.90;;;;;;5062017;28;20028;-61
2023/10/20 05:46:41;;;;;;;15.27;8.73;;;15.40;99.90;;;;;;5061926;28;20064;-63
2023/10/20 05:49:08;;;;;;;10.57;7.30;;;15.30;99.90;;;;;;5063992;28;20013;-63
2023/10/20 05:51:34;;;;;;;13.02;7.95;;;15.30;99.90;;;;;;5057272;28;20013;-63
2023/10/20 05:53:59;;;;;;;17.33;7.95;;;15.30;99.90;;;;;;5063969;28;20082;-63
2023/10/20 05:56:25;;;;;;;13.13;7.55;;;15.30;99.90;;;;;;5059145;28;20048;-63
2023/10/20 05:58:50;;;;;;;14.30;7.68;;;15.30;99.90;;;;;;5063377;28;20063;-63
2023/10/20 06:01:18;;;;;;;15.07;7.95;;;15.30;99.90;;;;;;5062726;28;20104;-62
2023/10/20 06:03:43;;;;;;;10.48;7.35;;;15.30;99.90;;;;;;5061686;28;20017;-63
2023/10/20 06:06:10;;;;;;;12.48;7.65;;;15.30;99.90;;;;;;5058365;28;20028;-63
2023/10/20 06:08:35;;;;;;;10.73;7.13;;;15.30;99.90;;;;;;5057368;28;20394;-62
2023/10/20 06:11:05;;;;;;;15.38;7.90;;;15.30;99.90;;;;;;5061881;28;20025;-62
2023/10/20 06:13:32;;;;;;;15.07;6.53;;;15.30;99.90;;;;;;5066326;28;20083;-62
2023/10/20 06:16:04;;;;;;;11.77;6.38;;;15.30;99.90;;;;;;5057794;28;20048;-62
2023/10/20 06:18:30;;;;;;;10.93;7.22;;;15.30;99.90;;;;;;5060141;28;20059;-63
2023/10/20 06:20:55;;;;;;;15.25;6.60;;;15.30;99.90;;;;;;5058054;28;20032;-62
2023/10/20 06:23:21;;;;;;;11.32;6.88;;;15.30;99.90;;;;;;5057660;28;20024;-63
2023/10/20 06:25:46;;;;;;;13.10;7.22;;;15.30;99.90;;;;;;5057848;28;20390;-63
2023/10/20 06:28:12;;;;;;;14.10;7.60;;;15.30;99.90;;;;;;5055556;28;20028;-63
2023/10/20 06:30:43;;;;;;;10.13;6.10;;;15.30;99.90;;;;;;5063653;28;20020;-63
2023/10/20 06:35:49;;;;;;;13.80;7.25;;;15.30;99.90;;;;;;5061579;28;20029;-62
2023/10/20 06:38:17;;;;;;;11.27;6.57;;;15.30;99.90;;;;;;5062379;28;20032;-63
2023/10/20 06:40:42;;;;;;;10.43;7.00;;;15.30;99.90;;;;;;5062082;28;20090;-58
2023/10/20 06:43:08;;;;;;;11.57;6.80;;;15.30;99.90;;;;;;5063295;28;20021;-62
2023/10/20 06:45:34;;;;;;;11.82;7.57;;;15.30;99.90;;;;;;5065566;28;20108;-61
2023/10/20 06:48:00;;;;;;;12.57;7.45;;;15.30;99.90;;;;;;5061731;28;20031;-62
2023/10/20 06:50:26;;;;;;;12.85;7.78;;;15.30;99.90;;;;;;5061045;28;20071;-62
2023/10/20 06:52:53;;;;;;;12.95;7.40;;;15.30;99.90;;;;;;5059673;28;20087;-63
2023/10/20 06:55:19;;;;;;;13.23;7.40;;;15.30;99.90;;;;;;5059432;28;20067;-62
2023/10/20 06:57:44;;;;;;;11.93;7.53;;;15.30;99.90;;;;;;5061757;28;20032;-63
2023/10/20 07:00:28;;;;;;;15.73;8.35;;;15.30;99.90;;;;;;5066302;28;20025;-63
2023/10/20 07:02:54;;;;;;;16.97;8.57;;;15.30;99.90;;;;;;5063294;28;20028;-63
2023/10/20 07:05:22;;;;;;;15.88;9.15;;;15.30;99.90;;;;;;5065631;28;20294;-62
2023/10/20 07:07:48;;;;;;;17.00;10.38;;;15.30;99.90;;;;;;5061121;28;20017;-63
2023/10/20 07:10:13;;;;;;;16.52;9.52;;;15.30;99.90;;;;;;5066378;28;20108;-63
2023/10/20 07:12:39;;;;;;;15.52;10.30;;;15.30;99.90;;;;;;5062796;28;20091;-63
2023/10/20 07:15:05;;;;;;;15.90;10.35;;;15.30;99.90;;;;;;5060438;28;20041;-63
2023/10/20 07:17:32;;;;;;;17.75;9.93;;;15.30;99.90;;;;;;5063033;28;20020;-62
2023/10/20 07:19:58;;;;;;;17.42;10.07;;;15.30;99.90;;;;;;5062211;28;20116;-62
2023/10/20 07:22:23;;;;;;;20.52;11.77;;;15.20;99.90;;;;;;5060520;28;20107;-62
2023/10/20 07:24:49;;;;;;;23.75;11.95;;;15.30;99.90;;;;;;5068307;28;20071;-63
2023/10/20 07:27:15;;;;;;;24.55;11.88;;;15.20;99.90;;;;;;5064379;28;20024;-61
2023/10/20 07:29:40;;;;;;;22.80;12.95;;;15.20;99.90;;;;;;5067187;28;20036;-61
2023/10/20 07:32:07;;;;;;;20.40;12.63;;;15.30;99.90;;;;;;5061894;28;20032;-61
2023/10/20 07:34:33;;;;;;;23.33;13.07;;;15.20;99.90;;;;;;5063694;28;20024;-62
2023/10/20 07:36:58;;;;;;;30.00;14.85;;;15.30;99.90;;;;;;5059124;28;20130;-63
2023/10/20 07:39:24;;;;;;;28.25;15.05;;;15.30;99.90;;;;;;5065180;28;20067;-62
2023/10/20 07:41:50;;;;;;;24.02;13.80;;;15.30;99.90;;;;;;5065834;28;20029;-64
2023/10/20 07:44:18;;;;;;;38.20;16.27;;;15.30;99.90;;;;;;5067273;28;20032;-61
2023/10/20 07:46:44;;;;;;;36.03;16.98;;;15.20;99.90;;;;;;5066536;28;20024;-62
2023/10/20 07:49:11;;;;;;;32.45;16.23;;;15.20;99.90;;;;;;5066741;28;20025;-64
2023/10/20 07:51:40;;;;;;;27.52;15.27;;;15.20;99.90;;;;;;5063286;28;20029;-64
2023/10/20 07:54:07;;;;;;;32.20;16.08;;;15.30;99.90;;;;;;5062083;28;20029;-63
2023/10/20 07:56:32;;;;;;;30.83;17.23;;;15.30;99.90;;;;;;5060170;28;20035;-62
2023/10/20 07:58:58;;;;;;;31.90;17.15;;;15.30;99.90;;;;;;5056062;28;20021;-63
2023/10/20 08:01:24;;;;;;;30.35;16.65;;;15.30;99.90;;;;;;5058372;28;20021;-62
2023/10/20 08:03:49;;;;;;;33.58;16.80;;;15.40;99.90;;;;;;5066895;28;20178;-63
2023/10/20 08:06:15;;;;;;;30.90;17.70;;;15.40;99.90;;;;;;5061202;28;20021;-62
2023/10/20 08:08:41;;;;;;;30.92;17.88;;;15.50;99.90;;;;;;5063736;28;20489;-62
2023/10/20 08:11:07;;;;;;;28.13;17.48;;;15.50;99.90;;;;;;5059379;28;20028;-61
2023/10/20 08:13:37;;;;;;;32.10;17.23;;;15.40;99.90;;;;;;5065540;28;20029;-62
2023/10/20 08:16:04;;;;;;;32.85;17.67;;;15.50;99.90;;;;;;5060407;28;20500;-63
2023/10/20 08:18:33;;;;;;;35.65;17.85;;;15.50;99.90;;;;;;5065832;28;20032;-63
2023/10/20 08:21:09;;;;;;;35.47;18.15;;;15.50;99.90;;;;;;5061477;28;20028;-63
2023/10/20 08:23:37;;;;;;;34.85;18.42;;;15.50;99.90;;;;;;5060269;28;20025;-62
2023/10/20 08:26:03;;;;;;;30.17;17.05;;;15.40;99.90;;;;;;5059766;28;20499;-63
2023/10/20 08:28:29;;;;;;;36.13;18.08;;;15.50;99.90;;;;;;5067985;28;20028;-63
2023/10/20 08:31:14;;;;;;;30.67;17.90;;;15.50;99.90;;;;;;5057430;28;20051;-62
2023/10/20 08:33:40;;;;;;;30.70;17.92;;;15.50;99.90;;;;;;5065821;28;20120;-61
2023/10/20 08:36:15;;;;;;;31.63;17.25;;;15.50;99.90;;;;;;5061877;28;20550;-63
2023/10/20 08:38:46;;;;;;;31.17;17.90;;;15.50;99.90;;;;;;5059931;28;20025;-61
2023/10/20 08:41:13;;;;;;;28.17;16.70;;;15.50;99.90;;;;;;5062105;28;20381;-59
2023/10/20 08:43:40;;;;;;;33.53;17.85;;;15.40;99.90;;;;;;5057552;28;20033;-62
2023/10/20 08:46:10;;;;;;;31.17;16.92;;;15.50;99.90;;;;;;5061085;28;20031;-62
2023/10/20 08:48:39;;;;;;;38.45;18.02;;;15.50;99.90;;;;;;5063404;28;20109;-60
2023/10/20 08:51:05;;;;;;;35.97;18.98;;;15.40;99.90;;;;;;5061515;28;20394;-62
2023/10/20 08:53:36;;;;;;;29.63;18.17;;;15.40;99.90;;;;;;5056407;28;20028;-60
2023/10/20 08:56:04;;;;;;;31.92;18.27;;;15.40;99.90;;;;;;5060981;28;20052;-60
2023/10/20 08:58:30;;;;;;;31.05;17.45;;;15.40;99.90;;;;;;5060525;28;20036;-61
2023/10/20 09:00:57;;;;;;;33.72;19.35;;;15.50;99.90;;;;;;5061470;28;20104;-62
2023/10/20 09:03:25;;;;;;;31.30;18.60;;;15.50;99.90;;;;;;5059440;28;20029;-61
2023/10/20 09:06:05;;;;;;;33.00;17.52;;;15.40;99.90;;;;;;5058229;28;20569;-63
2023/10/20 09:08:31;;;;;;;31.73;18.00;;;15.40;99.90;;;;;;5054121;28;20108;-62
2023/10/20 09:10:56;;;;;;;34.60;19.52;;;15.40;99.90;;;;;;5063763;28;20589;-63
2023/10/20 09:13:29;;;;;;;29.25;17.08;;;15.50;99.90;;;;;;5055257;28;20611;-62
2023/10/20 09:15:55;;;;;;;35.35;18.58;;;15.40;99.90;;;;;;5060876;28;20162;-63
2023/10/20 09:18:22;;;;;;;37.55;19.15;;;15.50;99.90;;;;;;5060943;28;20058;-62
2023/10/20 09:20:47;;;;;;;34.50;20.00;;;15.50;99.90;;;;;;5061035;28;20043;-62
2023/10/20 09:23:13;;;;;;;42.20;21.52;;;15.60;99.90;;;;;;5063631;28;20020;-62
2023/10/20 09:25:39;;;;;;;33.38;18.73;;;15.50;99.90;;;;;;5066565;28;20143;-62
2023/10/20 09:28:05;;;;;;;34.70;19.10;;;15.50;99.90;;;;;;5061821;28;20086;-61
2023/10/20 09:30:32;;;;;;;44.47;21.63;;;15.50;99.90;;;;;;5065418;28;20491;-63
2023/10/20 09:32:57;;;;;;;35.67;20.08;;;15.60;99.90;;;;;;5056097;28;20060;-62
2023/10/20 09:35:23;;;;;;;43.20;20.50;;;15.60;99.90;;;;;;5060605;28;20521;-59
2023/10/20 09:37:53;;;;;;;39.38;19.90;;;15.60;99.90;;;;;;5063783;28;20036;-64
2023/10/20 09:40:20;;;;;;;34.20;19.25;;;15.60;99.90;;;;;;5063620;28;20020;-63
2023/10/20 09:43:05;;;;;;;35.83;19.92;;;15.60;99.90;;;;;;5056212;28;20017;-63
2023/10/20 09:45:37;;;;;;;29.10;18.80;;;15.70;99.90;;;;;;5056010;28;20159;-61
2023/10/20 09:48:16;;;;;;;35.10;19.52;;;15.60;99.90;;;;;;5058466;28;20025;-63
2023/10/20 09:50:46;;;;;;;36.20;20.30;;;15.70;99.90;;;;;;5054471;28;20031;-63
2023/10/20 09:53:11;;;;;;;34.47;18.60;;;15.60;99.90;;;;;;5056223;28;20025;-62
2023/10/20 09:55:37;;;;;;;39.03;20.10;;;15.70;99.90;;;;;;5058212;28;20082;-62
2023/10/20 09:58:03;;;;;;;36.65;19.67;;;15.60;99.90;;;;;;5062636;28;20028;-62
2023/10/20 10:00:34;;;;;;;36.55;19.55;;;15.60;99.90;;;;;;5057289;28;20040;-62
2023/10/20 10:03:00;;;;;;;33.13;19.38;;;15.70;99.90;;;;;;5058523;28;20186;-61
2023/10/20 10:05:27;;;;;;;33.25;18.75;;;15.60;99.90;;;;;;5049766;28;20112;-61
2023/10/20 10:08:06;;;;;;;38.70;19.13;;;15.60;99.90;;;;;;5058656;28;20039;-61
2023/10/20 10:10:36;;;;;;;33.28;18.77;;;15.70;99.90;;;;;;5051134;28;20055;-60
2023/10/20 10:13:05;;;;;;;38.83;19.00;;;15.70;99.90;;;;;;5059651;28;20029;-61
2023/10/20 10:15:46;;;;;;;38.17;19.33;;;15.70;99.90;;;;;;5059808;28;20044;-62
2023/10/20 10:18:17;;;;;;;34.03;18.45;;;15.70;99.90;;;;;;5050732;28;20051;-61
2023/10/20 10:20:48;;;;;;;31.55;19.30;;;15.70;99.90;;;;;;5059266;28;20033;-61
2023/10/20 10:23:17;;;;;;;37.05;18.20;;;15.70;99.90;;;;;;5057595;28;20099;-60
2023/10/20 10:25:44;;;;;;;30.67;18.50;;;15.70;99.90;;;;;;5054247;28;20908;-59
2023/10/20 10:28:13;;;;;;;32.72;18.50;;;15.80;99.90;;;;;;5055282;28;20029;-62
2023/10/20 10:30:40;;;;;;;36.97;19.45;;;15.80;99.90;;;;;;5057185;28;20124;-63
2023/10/20 10:33:11;;;;;;;35.13;20.38;;;15.80;99.90;;;;;;5048677;28;20033;-62
2023/10/20 10:35:38;;;;;;;40.65;20.42;;;15.80;99.90;;;;;;5052996;28;20115;-60
2023/10/20 10:38:06;;;;;;;34.40;19.23;;;16.00;99.90;;;;;;5053289;28;20111;-62
2023/10/20 10:40:34;;;;;;;34.08;19.00;;;16.00;99.90;;;;;;5054245;28;20417;-61
2023/10/20 10:42:59;;;;;;;29.55;18.02;;;16.10;99.90;;;;;;5052435;28;20554;-62
2023/10/20 10:45:34;;;;;;;30.85;19.48;;;16.00;99.90;;;;;;5055358;28;20113;-62
2023/10/20 10:48:02;;;;;;;;;;;16.00;99.90;;;;;;5054659;28;20021;-61
2023/10/20 10:50:28;;;;;;;26.83;16.00;;;16.00;99.90;;;;;;5052161;28;19970;-62
2023/10/20 10:52:53;;;;;;;31.15;19.00;;;16.10;99.90;;;;;;5050150;28;20032;-62
2023/10/20 10:55:19;;;;;;;31.30;17.30;;;16.10;99.90;;;;;;5052809;28;20032;-62
2023/10/20 10:57:46;;;;;;;30.98;17.63;;;16.10;99.90;;;;;;5051694;28;20029;-63
2023/10/20 11:00:15;;;;;;;27.50;17.15;;;16.00;99.90;;;;;;5050994;28;20047;-62
2023/10/20 11:02:45;;;;;;;25.27;16.42;;;15.90;99.90;;;;;;5054771;28;20044;-62
2023/10/20 11:05:11;;;;;;;24.70;17.08;;;16.00;99.90;;;;;;5051962;28;20033;-62
2023/10/20 11:07:37;;;;;;;29.52;17.83;;;16.00;99.90;;;;;;5054009;28;20094;-61
2023/10/20 11:10:03;;;;;;;27.80;17.63;;;16.00;99.90;;;;;;5055113;28;20437;-62
2023/10/20 11:12:30;;;;;;;29.30;16.02;;;15.90;99.90;;;;;;5052240;28;20043;-62
2023/10/20 11:15:06;;;;;;;26.65;15.75;;;15.80;99.90;;;;;;5061653;28;20021;-60
2023/10/20 11:17:32;;;;;;;24.23;16.35;;;15.80;99.90;;;;;;5054190;28;20042;-62
2023/10/20 11:19:57;;;;;;;24.33;15.95;;;15.80;99.90;;;;;;5059654;28;20041;-62
2023/10/20 11:22:23;;;;;;;26.08;15.93;;;15.80;99.90;;;;;;5058626;28;20411;-62
2023/10/20 11:24:53;;;;;;;25.38;17.02;;;15.90;99.90;;;;;;5055950;28;20028;-62
2023/10/20 11:27:19;;;;;;;27.80;15.70;;;15.90;99.90;;;;;;5057165;28;20023;-62
2023/10/20 11:29:46;;;;;;;25.25;15.88;;;15.90;99.90;;;;;;5060634;28;20100;-63
2023/10/20 11:32:15;;;;;;;30.60;15.32;;;15.80;99.90;;;;;;5061148;28;20028;-63
2023/10/20 11:34:40;;;;;;;26.02;15.40;;;15.80;99.90;;;;;;5062449;28;20102;-63
2023/10/20 11:37:07;;;;;;;27.27;16.08;;;15.80;99.90;;;;;;5057940;28;20037;-63
2023/10/20 11:39:36;;;;;;;26.05;15.40;;;15.80;99.90;;;;;;5062941;28;20024;-63
2023/10/20 11:42:03;;;;;;;28.13;15.73;;;15.80;99.90;;;;;;5054190;28;20057;-62
2023/10/20 11:44:28;;;;;;;27.33;15.63;;;15.80;99.90;;;;;;5056109;28;20449;-62
2023/10/20 11:46:54;;;;;;;28.60;14.73;;;15.80;99.90;;;;;;5061805;28;20111;-62
2023/10/20 11:49:21;;;;;;;29.27;16.40;;;15.80;99.90;;;;;;5056994;28;20024;-63
2023/10/20 11:51:47;;;;;;;22.25;14.68;;;15.80;99.90;;;;;;5059543;28;20017;-63
2023/10/20 11:54:12;;;;;;;23.55;14.55;;;15.80;99.90;;;;;;5058755;28;20021;-63
2023/10/20 11:56:38;;;;;;;23.65;14.52;;;15.80;99.90;;;;;;5062856;28;20028;-64
2023/10/20 11:59:04;;;;;;;23.48;14.20;;;15.80;99.90;;;;;;5062055;28;20021;-62
2023/10/20 12:01:32;;;;;;;25.73;15.10;;;15.80;99.90;;;;;;5059808;28;20051;-62
2023/10/20 12:04:00;;;;;;;23.33;14.60;;;15.80;99.90;;;;;;5060591;28;20159;-62
2023/10/20 12:06:26;;;;;;;27.50;14.40;;;15.70;99.90;;;;;;5065266;28;20120;-61
2023/10/20 12:08:52;;;;;;;24.40;14.90;;;15.70;99.90;;;;;;5060761;28;20206;-63
2023/10/20 12:11:18;;;;;;;25.77;15.00;;;15.70;99.90;;;;;;5057542;28;20633;-63
2023/10/20 12:13:47;;;;;;;27.42;14.27;;;15.70;99.90;;;;;;5061183;28;20017;-61
2023/10/20 12:16:17;;;;;;;24.48;14.50;;;15.70;99.90;;;;;;5064051;28;20025;-62
2023/10/20 12:18:43;;;;;;;23.77;14.60;;;15.70;99.90;;;;;;5058127;28;20024;-62
2023/10/20 12:21:09;;;;;;;25.33;14.90;;;15.70;99.90;;;;;;5067080;28;20035;-63
2023/10/20 12:23:36;;;;;;;23.52;15.32;;;15.70;99.90;;;;;;5054291;28;20020;-63
2023/10/20 12:26:03;;;;;;;27.58;15.45;;;15.70;99.90;;;;;;5060888;28;20076;-62
2023/10/20 12:28:28;;;;;;;28.30;15.82;;;15.70;99.90;;;;;;5059361;28;20112;-62
2023/10/20 12:30:54;;;;;;;27.38;17.00;;;15.80;99.90;;;;;;5058114;28;20116;-61
2023/10/20 12:33:19;;;;;;;29.30;17.77;;;15.80;99.90;;;;;;5058958;28;20030;-62
2023/10/20 12:35:45;;;;;;;28.05;16.40;;;15.80;99.90;;;;;;5057660;28;20102;-61
2023/10/20 12:38:12;;;;;;;24.58;16.55;;;15.80;99.90;;;;;;5058037;28;20048;-60
2023/10/20 12:40:40;;;;;;;29.15;16.95;;;15.90;99.90;;;;;;5060095;28;20027;-59
2023/10/20 12:43:09;;;;;;;25.92;16.13;;;15.80;99.90;;;;;;5064237;28;20470;-63
2023/10/20 12:45:38;;;;;;;28.23;16.75;;;15.80;99.90;;;;;;5060055;28;20472;-62
2023/10/20 12:48:04;;;;;;;30.95;16.65;;;15.80;99.90;;;;;;5061320;28;20642;-60
2023/10/20 12:50:32;;;;;;;29.67;16.02;;;15.70;99.90;;;;;;5060842;28;20110;-62
2023/10/20 12:53:01;;;;;;;29.65;16.52;;;15.80;99.90;;;;;;5057482;28;20070;-61
2023/10/20 12:55:27;;;;;;;26.67;15.82;;;15.80;99.90;;;;;;5053083;28;20061;-63
2023/10/20 12:57:53;;;;;;;23.30;14.55;;;15.80;99.90;;;;;;5063418;28;20082;-61
2023/10/20 13:00:20;;;;;;;29.63;16.02;;;15.80;99.90;;;;;;5060812;28;20040;-60
2023/10/20 13:02:50;;;;;;;24.38;15.70;;;15.80;99.90;;;;;;5059186;28;20103;-61
2023/10/20 13:05:16;;;;;;;25.55;15.73;;;15.80;99.90;;;;;;5058242;28;20024;-63